<?xml version="1.0" encoding="utf-8"?>
<gpx xmlns:xsi="http://www.w3.org/2001/XMLSchema-instance" xmlns:xsd="http://www.w3.org/2001/XMLSchema" version="1.1" creator="Shapelink.com" xmlns="http://www.topografix.com/GPX/1/1" xmlns:gpxtpx="http://www.garmin.com/xmlschemas/TrackPointExtension/v1">
  <metadata>
    <name>Cykling 12.56 km, 2019-08-26</name>
    <desc></desc>
    <author><name>Henrik Staffas</name></author> 
    <time>2019-08-26T07:37:04Z</time>
  </metadata>
  <trk>
    <name>Cykling 12.56 km, 2019-08-26</name>
    <trkseg>
      <trkpt lat="59.421630583765" lon="17.966630477908">
        <ele>40.2</ele>
        <time>2019-08-26T07:37:04Z</time>
      </trkpt>
      <trkpt lat="59.421434363486" lon="17.966010720222">
        <ele>39</ele>
        <time>2019-08-26T07:37:14Z</time>
      </trkpt>
      <trkpt lat="59.42112976524" lon="17.965027020438">
        <ele>39.2</ele>
        <time>2019-08-26T07:37:26Z</time>
      </trkpt>
      <trkpt lat="59.421003785283" lon="17.964607925438">
        <ele>38.8</ele>
        <time>2019-08-26T07:37:30Z</time>
      </trkpt>
      <trkpt lat="59.420998923781" lon="17.964366778175">
        <ele>38.4</ele>
        <time>2019-08-26T07:37:32Z</time>
      </trkpt>
      <trkpt lat="59.421035636503" lon="17.964124373627">
        <ele>38</ele>
        <time>2019-08-26T07:37:34Z</time>
      </trkpt>
      <trkpt lat="59.421146026126" lon="17.963460778604">
        <ele>37.2</ele>
        <time>2019-08-26T07:37:40Z</time>
      </trkpt>
      <trkpt lat="59.421152647827" lon="17.963345024565">
        <ele>37</ele>
        <time>2019-08-26T07:37:41Z</time>
      </trkpt>
      <trkpt lat="59.421149714162" lon="17.963230779268">
        <ele>36.8</ele>
        <time>2019-08-26T07:37:42Z</time>
      </trkpt>
      <trkpt lat="59.421090705586" lon="17.962705820871">
        <ele>36.4</ele>
        <time>2019-08-26T07:37:47Z</time>
      </trkpt>
      <trkpt lat="59.420952823331" lon="17.961831588701">
        <ele>36.2</ele>
        <time>2019-08-26T07:37:56Z</time>
      </trkpt>
      <trkpt lat="59.420858862232" lon="17.961160533787">
        <ele>35.8</ele>
        <time>2019-08-26T07:38:02Z</time>
      </trkpt>
      <trkpt lat="59.420839835319" lon="17.961059280435">
        <ele>35.8</ele>
        <time>2019-08-26T07:38:03Z</time>
      </trkpt>
      <trkpt lat="59.420713855362" lon="17.960146240068">
        <ele>35.8</ele>
        <time>2019-08-26T07:38:12Z</time>
      </trkpt>
      <trkpt lat="59.420625761593" lon="17.959246862198">
        <ele>37</ele>
        <time>2019-08-26T07:38:21Z</time>
      </trkpt>
      <trkpt lat="59.420618553159" lon="17.95899020842">
        <ele>38</ele>
        <time>2019-08-26T07:38:24Z</time>
      </trkpt>
      <trkpt lat="59.420396935723" lon="17.958853248174">
        <ele>38.6</ele>
        <time>2019-08-26T07:38:35Z</time>
      </trkpt>
      <trkpt lat="59.419908103315" lon="17.959286508585">
        <ele>38</ele>
        <time>2019-08-26T07:38:44Z</time>
      </trkpt>
      <trkpt lat="59.419316005899" lon="17.9594277436">
        <ele>37.6</ele>
        <time>2019-08-26T07:38:53Z</time>
      </trkpt>
      <trkpt lat="59.418724327578" lon="17.959644080439">
        <ele>37.8</ele>
        <time>2019-08-26T07:39:02Z</time>
      </trkpt>
      <trkpt lat="59.418191238738" lon="17.95982588385">
        <ele>38.2</ele>
        <time>2019-08-26T07:39:10Z</time>
      </trkpt>
      <trkpt lat="59.417623197375" lon="17.960050267313">
        <ele>38.2</ele>
        <time>2019-08-26T07:39:19Z</time>
      </trkpt>
      <trkpt lat="59.417077703323" lon="17.960333072619">
        <ele>39.2</ele>
        <time>2019-08-26T07:39:28Z</time>
      </trkpt>
      <trkpt lat="59.41666807987" lon="17.960730793774">
        <ele>40.4</ele>
        <time>2019-08-26T07:39:35Z</time>
      </trkpt>
      <trkpt lat="59.416413605386" lon="17.960949980459">
        <ele>41.6</ele>
        <time>2019-08-26T07:39:40Z</time>
      </trkpt>
      <trkpt lat="59.4161626513" lon="17.961157181027">
        <ele>42.6</ele>
        <time>2019-08-26T07:39:45Z</time>
      </trkpt>
      <trkpt lat="59.415821005056" lon="17.961505951886">
        <ele>43</ele>
        <time>2019-08-26T07:39:52Z</time>
      </trkpt>
      <trkpt lat="59.415591927729" lon="17.961810550132">
        <ele>43.8</ele>
        <time>2019-08-26T07:39:57Z</time>
      </trkpt>
      <trkpt lat="59.415467205057" lon="17.962014733216">
        <ele>44.8</ele>
        <time>2019-08-26T07:40:00Z</time>
      </trkpt>
      <trkpt lat="59.415070908825" lon="17.962781090333">
        <ele>45.4</ele>
        <time>2019-08-26T07:40:10Z</time>
      </trkpt>
      <trkpt lat="59.414794473763" lon="17.963426580452">
        <ele>46</ele>
        <time>2019-08-26T07:40:17Z</time>
      </trkpt>
      <trkpt lat="59.414645862676" lon="17.963938546904">
        <ele>47</ele>
        <time>2019-08-26T07:40:22Z</time>
      </trkpt>
      <trkpt lat="59.414493395915" lon="17.964517317099">
        <ele>47.8</ele>
        <time>2019-08-26T07:40:28Z</time>
      </trkpt>
      <trkpt lat="59.414414857512" lon="17.964768606461">
        <ele>48</ele>
        <time>2019-08-26T07:40:31Z</time>
      </trkpt>
      <trkpt lat="59.414315951092" lon="17.965184181063">
        <ele>49.4</ele>
        <time>2019-08-26T07:40:36Z</time>
      </trkpt>
      <trkpt lat="59.414234311386" lon="17.965450390207">
        <ele>50.4</ele>
        <time>2019-08-26T07:40:39Z</time>
      </trkpt>
      <trkpt lat="59.414070109965" lon="17.965953723302">
        <ele>51.6</ele>
        <time>2019-08-26T07:40:45Z</time>
      </trkpt>
      <trkpt lat="59.413965420034" lon="17.96626485943">
        <ele>52.6</ele>
        <time>2019-08-26T07:40:49Z</time>
      </trkpt>
      <trkpt lat="59.413822676277" lon="17.966601979448">
        <ele>54</ele>
        <time>2019-08-26T07:40:54Z</time>
      </trkpt>
      <trkpt lat="59.413650260594" lon="17.966978075301">
        <ele>55</ele>
        <time>2019-08-26T07:40:59Z</time>
      </trkpt>
      <trkpt lat="59.413506091914" lon="17.967268927231">
        <ele>56</ele>
        <time>2019-08-26T07:41:03Z</time>
      </trkpt>
      <trkpt lat="59.413314397861" lon="17.967531532158">
        <ele>57.4</ele>
        <time>2019-08-26T07:41:08Z</time>
      </trkpt>
      <trkpt lat="59.413121195066" lon="17.967728842084">
        <ele>58.6</ele>
        <time>2019-08-26T07:41:13Z</time>
      </trkpt>
      <trkpt lat="59.412906786064" lon="17.967897821188">
        <ele>59.8</ele>
        <time>2019-08-26T07:41:18Z</time>
      </trkpt>
      <trkpt lat="59.412434046904" lon="17.96809295182">
        <ele>60.8</ele>
        <time>2019-08-26T07:41:28Z</time>
      </trkpt>
      <trkpt lat="59.412169178864" lon="17.968112314009">
        <ele>61.6</ele>
        <time>2019-08-26T07:41:33Z</time>
      </trkpt>
      <trkpt lat="59.412001121769" lon="17.968078367314">
        <ele>62</ele>
        <time>2019-08-26T07:41:36Z</time>
      </trkpt>
      <trkpt lat="59.411841195117" lon="17.968128491076">
        <ele>62</ele>
        <time>2019-08-26T07:41:39Z</time>
      </trkpt>
      <trkpt lat="59.41125756342" lon="17.968364106285">
        <ele>61.8</ele>
        <time>2019-08-26T07:41:48Z</time>
      </trkpt>
      <trkpt lat="59.410980709263" lon="17.968569379016">
        <ele>60.8</ele>
        <time>2019-08-26T07:41:52Z</time>
      </trkpt>
      <trkpt lat="59.410526577921" lon="17.969279745041">
        <ele>60.8</ele>
        <time>2019-08-26T07:42:00Z</time>
      </trkpt>
      <trkpt lat="59.410177890881" lon="17.970090023314">
        <ele>60</ele>
        <time>2019-08-26T07:42:07Z</time>
      </trkpt>
      <trkpt lat="59.410128689128" lon="17.970214913624">
        <ele>59.6</ele>
        <time>2019-08-26T07:42:08Z</time>
      </trkpt>
      <trkpt lat="59.409994075814" lon="17.970625039991">
        <ele>58.2</ele>
        <time>2019-08-26T07:42:11Z</time>
      </trkpt>
      <trkpt lat="59.409658213081" lon="17.97158568955">
        <ele>57</ele>
        <time>2019-08-26T07:42:18Z</time>
      </trkpt>
      <trkpt lat="59.409396865439" lon="17.972238136646">
        <ele>56</ele>
        <time>2019-08-26T07:42:23Z</time>
      </trkpt>
      <trkpt lat="59.409053878091" lon="17.972954705277">
        <ele>55</ele>
        <time>2019-08-26T07:42:29Z</time>
      </trkpt>
      <trkpt lat="59.40864911614" lon="17.973716200892">
        <ele>54</ele>
        <time>2019-08-26T07:42:36Z</time>
      </trkpt>
      <trkpt lat="59.408587760632" lon="17.973828266895">
        <ele>53.6</ele>
        <time>2019-08-26T07:42:37Z</time>
      </trkpt>
      <trkpt lat="59.408144358122" lon="17.974491778099">
        <ele>53.6</ele>
        <time>2019-08-26T07:42:44Z</time>
      </trkpt>
      <trkpt lat="59.40800035708" lon="17.974637287883">
        <ele>53</ele>
        <time>2019-08-26T07:42:46Z</time>
      </trkpt>
      <trkpt lat="59.407921483401" lon="17.974705851825">
        <ele>52.6</ele>
        <time>2019-08-26T07:42:47Z</time>
      </trkpt>
      <trkpt lat="59.407375989349" lon="17.975019167247">
        <ele>51.6</ele>
        <time>2019-08-26T07:42:54Z</time>
      </trkpt>
      <trkpt lat="59.407147582574" lon="17.975090245759">
        <ele>51.4</ele>
        <time>2019-08-26T07:42:57Z</time>
      </trkpt>
      <trkpt lat="59.406926803328" lon="17.9751270423">
        <ele>51.2</ele>
        <time>2019-08-26T07:43:00Z</time>
      </trkpt>
      <trkpt lat="59.40677073235" lon="17.975198372269">
        <ele>50.8</ele>
        <time>2019-08-26T07:43:02Z</time>
      </trkpt>
      <trkpt lat="59.406688254454" lon="17.975260398329">
        <ele>50.4</ele>
        <time>2019-08-26T07:43:03Z</time>
      </trkpt>
      <trkpt lat="59.406447526286" lon="17.975485452344">
        <ele>49.2</ele>
        <time>2019-08-26T07:43:06Z</time>
      </trkpt>
      <trkpt lat="59.406375441946" lon="17.975558123417">
        <ele>49</ele>
        <time>2019-08-26T07:43:07Z</time>
      </trkpt>
      <trkpt lat="59.406131947751" lon="17.975988953077">
        <ele>48</ele>
        <time>2019-08-26T07:43:11Z</time>
      </trkpt>
      <trkpt lat="59.405964142113" lon="17.976301597947">
        <ele>46.6</ele>
        <time>2019-08-26T07:43:14Z</time>
      </trkpt>
      <trkpt lat="59.4058529143" lon="17.976493794914">
        <ele>46.2</ele>
        <time>2019-08-26T07:43:16Z</time>
      </trkpt>
      <trkpt lat="59.405728610723" lon="17.976623462907">
        <ele>46</ele>
        <time>2019-08-26T07:43:18Z</time>
      </trkpt>
      <trkpt lat="59.405597098712" lon="17.976657912516">
        <ele>45.6</ele>
        <time>2019-08-26T07:43:20Z</time>
      </trkpt>
      <trkpt lat="59.405530043512" lon="17.976631677169">
        <ele>45.4</ele>
        <time>2019-08-26T07:43:21Z</time>
      </trkpt>
      <trkpt lat="59.405471705488" lon="17.976571998041">
        <ele>45.2</ele>
        <time>2019-08-26T07:43:22Z</time>
      </trkpt>
      <trkpt lat="59.405282274548" lon="17.976387093327">
        <ele>44</ele>
        <time>2019-08-26T07:43:25Z</time>
      </trkpt>
      <trkpt lat="59.405115726195" lon="17.976322133602">
        <ele>43.8</ele>
        <time>2019-08-26T07:43:27Z</time>
      </trkpt>
      <trkpt lat="59.404991841713" lon="17.976134965775">
        <ele>43.8</ele>
        <time>2019-08-26T07:43:29Z</time>
      </trkpt>
      <trkpt lat="59.404884721031" lon="17.97589147158">
        <ele>43.6</ele>
        <time>2019-08-26T07:43:31Z</time>
      </trkpt>
      <trkpt lat="59.404622535199" lon="17.975250423868">
        <ele>43</ele>
        <time>2019-08-26T07:43:36Z</time>
      </trkpt>
      <trkpt lat="59.404514660146" lon="17.975010617709">
        <ele>42.6</ele>
        <time>2019-08-26T07:43:38Z</time>
      </trkpt>
      <trkpt lat="59.404038065312" lon="17.974534693427">
        <ele>42.4</ele>
        <time>2019-08-26T07:43:45Z</time>
      </trkpt>
      <trkpt lat="59.403498522409" lon="17.974302347159">
        <ele>44</ele>
        <time>2019-08-26T07:43:54Z</time>
      </trkpt>
      <trkpt lat="59.403064423808" lon="17.973911331524">
        <ele>44</ele>
        <time>2019-08-26T07:44:01Z</time>
      </trkpt>
      <trkpt lat="59.402939533498" lon="17.973918791415">
        <ele>44.2</ele>
        <time>2019-08-26T07:44:03Z</time>
      </trkpt>
      <trkpt lat="59.402820426699" lon="17.974009148297">
        <ele>44.2</ele>
        <time>2019-08-26T07:44:05Z</time>
      </trkpt>
      <trkpt lat="59.402749599644" lon="17.974207464051">
        <ele>44.2</ele>
        <time>2019-08-26T07:44:07Z</time>
      </trkpt>
      <trkpt lat="59.402414910377" lon="17.975098460021">
        <ele>44.8</ele>
        <time>2019-08-26T07:44:15Z</time>
      </trkpt>
      <trkpt lat="59.402004197277" lon="17.975968836517">
        <ele>43.2</ele>
        <time>2019-08-26T07:44:22Z</time>
      </trkpt>
      <trkpt lat="59.401943679959" lon="17.976093810646">
        <ele>43</ele>
        <time>2019-08-26T07:44:23Z</time>
      </trkpt>
      <trkpt lat="59.401534140325" lon="17.976966366436">
        <ele>42.8</ele>
        <time>2019-08-26T07:44:30Z</time>
      </trkpt>
      <trkpt lat="59.401149159658" lon="17.977801538952">
        <ele>42</ele>
        <time>2019-08-26T07:44:37Z</time>
      </trkpt>
      <trkpt lat="59.400805920853" lon="17.978687505782">
        <ele>41.6</ele>
        <time>2019-08-26T07:44:44Z</time>
      </trkpt>
      <trkpt lat="59.400599474656" lon="17.979162675693">
        <ele>41</ele>
        <time>2019-08-26T07:44:48Z</time>
      </trkpt>
      <trkpt lat="59.400216002731" lon="17.979944874601">
        <ele>40.8</ele>
        <time>2019-08-26T07:44:55Z</time>
      </trkpt>
      <trkpt lat="59.399809229124" lon="17.980738221436">
        <ele>41.2</ele>
        <time>2019-08-26T07:45:02Z</time>
      </trkpt>
      <trkpt lat="59.399411759426" lon="17.981618488574">
        <ele>40.2</ele>
        <time>2019-08-26T07:45:09Z</time>
      </trkpt>
      <trkpt lat="59.399237415906" lon="17.981945131217">
        <ele>39.8</ele>
        <time>2019-08-26T07:45:12Z</time>
      </trkpt>
      <trkpt lat="59.399016804298" lon="17.982342600915">
        <ele>39</ele>
        <time>2019-08-26T07:45:16Z</time>
      </trkpt>
      <trkpt lat="59.398823769141" lon="17.982567822568">
        <ele>38.6</ele>
        <time>2019-08-26T07:45:19Z</time>
      </trkpt>
      <trkpt lat="59.398298810744" lon="17.983176013232">
        <ele>37.8</ele>
        <time>2019-08-26T07:45:27Z</time>
      </trkpt>
      <trkpt lat="59.397851468741" lon="17.983798788402">
        <ele>37.6</ele>
        <time>2019-08-26T07:45:34Z</time>
      </trkpt>
      <trkpt lat="59.397627923468" lon="17.984036750543">
        <ele>36.4</ele>
        <time>2019-08-26T07:45:37Z</time>
      </trkpt>
      <trkpt lat="59.397165577864" lon="17.984508316237">
        <ele>35.2</ele>
        <time>2019-08-26T07:45:43Z</time>
      </trkpt>
      <trkpt lat="59.396641625295" lon="17.985077531066">
        <ele>35.2</ele>
        <time>2019-08-26T07:45:50Z</time>
      </trkpt>
      <trkpt lat="59.396131083766" lon="17.985584133102">
        <ele>34.8</ele>
        <time>2019-08-26T07:45:57Z</time>
      </trkpt>
      <trkpt lat="59.395595899451" lon="17.986024434309">
        <ele>35</ele>
        <time>2019-08-26T07:46:05Z</time>
      </trkpt>
      <trkpt lat="59.395031294667" lon="17.986364907087">
        <ele>34.6</ele>
        <time>2019-08-26T07:46:13Z</time>
      </trkpt>
      <trkpt lat="59.394719907082" lon="17.98653145544">
        <ele>34.2</ele>
        <time>2019-08-26T07:46:17Z</time>
      </trkpt>
      <trkpt lat="59.394421343804" lon="17.986717198344">
        <ele>33.4</ele>
        <time>2019-08-26T07:46:21Z</time>
      </trkpt>
      <trkpt lat="59.394275414925" lon="17.986810405072">
        <ele>33</ele>
        <time>2019-08-26T07:46:23Z</time>
      </trkpt>
      <trkpt lat="59.394139879602" lon="17.986896990099">
        <ele>32.8</ele>
        <time>2019-08-26T07:46:25Z</time>
      </trkpt>
      <trkpt lat="59.393802340489" lon="17.987060772425">
        <ele>32</ele>
        <time>2019-08-26T07:46:30Z</time>
      </trkpt>
      <trkpt lat="59.393687340821" lon="17.987133527317">
        <ele>31.8</ele>
        <time>2019-08-26T07:46:31Z</time>
      </trkpt>
      <trkpt lat="59.393215020756" lon="17.987380038996">
        <ele>30.8</ele>
        <time>2019-08-26T07:46:36Z</time>
      </trkpt>
      <trkpt lat="59.393048472403" lon="17.987485734755">
        <ele>30.4</ele>
        <time>2019-08-26T07:46:38Z</time>
      </trkpt>
      <trkpt lat="59.392594843975" lon="17.988049585168">
        <ele>30.2</ele>
        <time>2019-08-26T07:46:44Z</time>
      </trkpt>
      <trkpt lat="59.392366940114" lon="17.988582590189">
        <ele>29.8</ele>
        <time>2019-08-26T07:46:48Z</time>
      </trkpt>
      <trkpt lat="59.392176670984" lon="17.989355401369">
        <ele>28.4</ele>
        <time>2019-08-26T07:46:53Z</time>
      </trkpt>
      <trkpt lat="59.391938289748" lon="17.990441025057">
        <ele>27.4</ele>
        <time>2019-08-26T07:47:00Z</time>
      </trkpt>
      <trkpt lat="59.391672248242" lon="17.991370996862">
        <ele>26</ele>
        <time>2019-08-26T07:47:06Z</time>
      </trkpt>
      <trkpt lat="59.391469909176" lon="17.992006763977">
        <ele>24.8</ele>
        <time>2019-08-26T07:47:10Z</time>
      </trkpt>
      <trkpt lat="59.391213339217" lon="17.992802960658">
        <ele>23.6</ele>
        <time>2019-08-26T07:47:15Z</time>
      </trkpt>
      <trkpt lat="59.390963810054" lon="17.993563366626">
        <ele>22.6</ele>
        <time>2019-08-26T07:47:20Z</time>
      </trkpt>
      <trkpt lat="59.390631132443" lon="17.994607835185">
        <ele>21.8</ele>
        <time>2019-08-26T07:47:27Z</time>
      </trkpt>
      <trkpt lat="59.390535075869" lon="17.994913187802">
        <ele>21.6</ele>
        <time>2019-08-26T07:47:29Z</time>
      </trkpt>
      <trkpt lat="59.390229304157" lon="17.995838549562">
        <ele>21.2</ele>
        <time>2019-08-26T07:47:35Z</time>
      </trkpt>
      <trkpt lat="59.39000441778" lon="17.996396867921">
        <ele>21.2</ele>
        <time>2019-08-26T07:47:39Z</time>
      </trkpt>
      <trkpt lat="59.389822027636" lon="17.996657042097">
        <ele>22.6</ele>
        <time>2019-08-26T07:47:42Z</time>
      </trkpt>
      <trkpt lat="59.389760755947" lon="17.996732982111">
        <ele>23.2</ele>
        <time>2019-08-26T07:47:43Z</time>
      </trkpt>
      <trkpt lat="59.389637206741" lon="17.996869271805">
        <ele>24.2</ele>
        <time>2019-08-26T07:47:45Z</time>
      </trkpt>
      <trkpt lat="59.389518183761" lon="17.997019559272">
        <ele>25.6</ele>
        <time>2019-08-26T07:47:47Z</time>
      </trkpt>
      <trkpt lat="59.38895248933" lon="17.997752807884">
        <ele>26.8</ele>
        <time>2019-08-26T07:47:57Z</time>
      </trkpt>
      <trkpt lat="59.388846961209" lon="17.997881553868">
        <ele>28.2</ele>
        <time>2019-08-26T07:47:59Z</time>
      </trkpt>
      <trkpt lat="59.388760124725" lon="17.997979119184">
        <ele>29.6</ele>
        <time>2019-08-26T07:48:01Z</time>
      </trkpt>
      <trkpt lat="59.388667337092" lon="17.998082970925">
        <ele>31</ele>
        <time>2019-08-26T07:48:03Z</time>
      </trkpt>
      <trkpt lat="59.388561389876" lon="17.998202329181">
        <ele>32</ele>
        <time>2019-08-26T07:48:05Z</time>
      </trkpt>
      <trkpt lat="59.388369528185" lon="17.998500138088">
        <ele>33.2</ele>
        <time>2019-08-26T07:48:09Z</time>
      </trkpt>
      <trkpt lat="59.388076832237" lon="17.99897019504">
        <ele>33.8</ele>
        <time>2019-08-26T07:48:15Z</time>
      </trkpt>
      <trkpt lat="59.387966358795" lon="17.999066167795">
        <ele>33.4</ele>
        <time>2019-08-26T07:48:17Z</time>
      </trkpt>
      <trkpt lat="59.387862171778" lon="17.999099611576">
        <ele>32.8</ele>
        <time>2019-08-26T07:48:19Z</time>
      </trkpt>
      <trkpt lat="59.387775251475" lon="17.998980756234">
        <ele>32</ele>
        <time>2019-08-26T07:48:21Z</time>
      </trkpt>
      <trkpt lat="59.387630831338" lon="17.998693676159">
        <ele>31.4</ele>
        <time>2019-08-26T07:48:24Z</time>
      </trkpt>
      <trkpt lat="59.387540222999" lon="17.998265528707">
        <ele>32</ele>
        <time>2019-08-26T07:48:28Z</time>
      </trkpt>
      <trkpt lat="59.387487584667" lon="17.998090766092">
        <ele>32.2</ele>
        <time>2019-08-26T07:48:30Z</time>
      </trkpt>
      <trkpt lat="59.387398736527" lon="17.997913991821">
        <ele>32.4</ele>
        <time>2019-08-26T07:48:32Z</time>
      </trkpt>
      <trkpt lat="59.387245180119" lon="17.997734870618">
        <ele>32.4</ele>
        <time>2019-08-26T07:48:34Z</time>
      </trkpt>
      <trkpt lat="59.38670194918" lon="17.997685165951">
        <ele>31.4</ele>
        <time>2019-08-26T07:48:40Z</time>
      </trkpt>
      <trkpt lat="59.386516373914" lon="17.997693883127">
        <ele>31</ele>
        <time>2019-08-26T07:48:42Z</time>
      </trkpt>
      <trkpt lat="59.386140110423" lon="17.9977330266">
        <ele>29.8</ele>
        <time>2019-08-26T07:48:46Z</time>
      </trkpt>
      <trkpt lat="59.385680530846" lon="17.997772002435">
        <ele>28.8</ele>
        <time>2019-08-26T07:48:51Z</time>
      </trkpt>
      <trkpt lat="59.385292616514" lon="17.997795723212">
        <ele>27.8</ele>
        <time>2019-08-26T07:48:55Z</time>
      </trkpt>
      <trkpt lat="59.384905121277" lon="17.997834028495">
        <ele>26.6</ele>
        <time>2019-08-26T07:48:59Z</time>
      </trkpt>
      <trkpt lat="59.384347557289" lon="17.997893372347">
        <ele>25.4</ele>
        <time>2019-08-26T07:49:05Z</time>
      </trkpt>
      <trkpt lat="59.383810612775" lon="17.9979425741">
        <ele>24.6</ele>
        <time>2019-08-26T07:49:11Z</time>
      </trkpt>
      <trkpt lat="59.383724195386" lon="17.997998984287">
        <ele>24.4</ele>
        <time>2019-08-26T07:49:12Z</time>
      </trkpt>
      <trkpt lat="59.383641968947" lon="17.998077187414">
        <ele>24</ele>
        <time>2019-08-26T07:49:13Z</time>
      </trkpt>
      <trkpt lat="59.383335610502" lon="17.99850080864">
        <ele>23.2</ele>
        <time>2019-08-26T07:49:17Z</time>
      </trkpt>
      <trkpt lat="59.382986839643" lon="17.999053008212">
        <ele>22.4</ele>
        <time>2019-08-26T07:49:22Z</time>
      </trkpt>
      <trkpt lat="59.382925232678" lon="17.999365401625">
        <ele>22.2</ele>
        <time>2019-08-26T07:49:24Z</time>
      </trkpt>
      <trkpt lat="59.382857423107" lon="17.999687853318">
        <ele>22.2</ele>
        <time>2019-08-26T07:49:26Z</time>
      </trkpt>
      <trkpt lat="59.382741752887" lon="17.999956577032">
        <ele>22.2</ele>
        <time>2019-08-26T07:49:28Z</time>
      </trkpt>
      <trkpt lat="59.382590794868" lon="18.000145588877">
        <ele>22.2</ele>
        <time>2019-08-26T07:49:30Z</time>
      </trkpt>
      <trkpt lat="59.382202796717" lon="18.000572562863">
        <ele>21</ele>
        <time>2019-08-26T07:49:35Z</time>
      </trkpt>
      <trkpt lat="59.381873555685" lon="18.001085618962">
        <ele>22.2</ele>
        <time>2019-08-26T07:49:40Z</time>
      </trkpt>
      <trkpt lat="59.381692339007" lon="18.001355767599">
        <ele>22.4</ele>
        <time>2019-08-26T07:49:43Z</time>
      </trkpt>
      <trkpt lat="59.381573483665" lon="18.001455931304">
        <ele>22.2</ele>
        <time>2019-08-26T07:49:45Z</time>
      </trkpt>
      <trkpt lat="59.381438032161" lon="18.001656845447">
        <ele>21.4</ele>
        <time>2019-08-26T07:49:48Z</time>
      </trkpt>
      <trkpt lat="59.381258240406" lon="18.001724822656">
        <ele>21.6</ele>
        <time>2019-08-26T07:49:52Z</time>
      </trkpt>
      <trkpt lat="59.381131757535" lon="18.001658689465">
        <ele>22</ele>
        <time>2019-08-26T07:49:54Z</time>
      </trkpt>
      <trkpt lat="59.380997395678" lon="18.001563722538">
        <ele>22.4</ele>
        <time>2019-08-26T07:49:56Z</time>
      </trkpt>
      <trkpt lat="59.380410159764" lon="18.00142776812">
        <ele>22.8</ele>
        <time>2019-08-26T07:50:04Z</time>
      </trkpt>
      <trkpt lat="59.380259201745" lon="18.001387702638">
        <ele>23.4</ele>
        <time>2019-08-26T07:50:06Z</time>
      </trkpt>
      <trkpt lat="59.380193906744" lon="18.001393905244">
        <ele>23.8</ele>
        <time>2019-08-26T07:50:07Z</time>
      </trkpt>
      <trkpt lat="59.379989388384" lon="18.001475209674">
        <ele>24.6</ele>
        <time>2019-08-26T07:50:10Z</time>
      </trkpt>
      <trkpt lat="59.379849829749" lon="18.001553831896">
        <ele>25.2</ele>
        <time>2019-08-26T07:50:12Z</time>
      </trkpt>
      <trkpt lat="59.379713204779" lon="18.001645362244">
        <ele>25.8</ele>
        <time>2019-08-26T07:50:14Z</time>
      </trkpt>
      <trkpt lat="59.379175422075" lon="18.00203964682">
        <ele>25.8</ele>
        <time>2019-08-26T07:50:22Z</time>
      </trkpt>
      <trkpt lat="59.378856239323" lon="18.002270903441">
        <ele>27</ele>
        <time>2019-08-26T07:50:27Z</time>
      </trkpt>
      <trkpt lat="59.378610482015" lon="18.002431165369">
        <ele>28.2</ele>
        <time>2019-08-26T07:50:31Z</time>
      </trkpt>
      <trkpt lat="59.378210833023" lon="18.002727046439">
        <ele>29.2</ele>
        <time>2019-08-26T07:50:38Z</time>
      </trkpt>
      <trkpt lat="59.377950239752" lon="18.00295746487">
        <ele>29.4</ele>
        <time>2019-08-26T07:50:42Z</time>
      </trkpt>
      <trkpt lat="59.3778406045" lon="18.003120325187">
        <ele>29.6</ele>
        <time>2019-08-26T07:50:44Z</time>
      </trkpt>
      <trkpt lat="59.377715462733" lon="18.003204060368">
        <ele>29.6</ele>
        <time>2019-08-26T07:50:46Z</time>
      </trkpt>
      <trkpt lat="59.377556374271" lon="18.003224176928">
        <ele>29.2</ele>
        <time>2019-08-26T07:50:48Z</time>
      </trkpt>
      <trkpt lat="59.377403656053" lon="18.003334231275">
        <ele>28.6</ele>
        <time>2019-08-26T07:50:50Z</time>
      </trkpt>
      <trkpt lat="59.377255296423" lon="18.003501366361">
        <ele>28.2</ele>
        <time>2019-08-26T07:50:52Z</time>
      </trkpt>
      <trkpt lat="59.376945166123" lon="18.00384594627">
        <ele>27</ele>
        <time>2019-08-26T07:50:56Z</time>
      </trkpt>
      <trkpt lat="59.37677777958" lon="18.003954408056">
        <ele>26.4</ele>
        <time>2019-08-26T07:50:58Z</time>
      </trkpt>
      <trkpt lat="59.376608046105" lon="18.004070748828">
        <ele>25.4</ele>
        <time>2019-08-26T07:51:00Z</time>
      </trkpt>
      <trkpt lat="59.37634694992" lon="18.004241320493">
        <ele>24.4</ele>
        <time>2019-08-26T07:51:03Z</time>
      </trkpt>
      <trkpt lat="59.376040926751" lon="18.004390266856">
        <ele>23.2</ele>
        <time>2019-08-26T07:51:06Z</time>
      </trkpt>
      <trkpt lat="59.375749907183" lon="18.004555474105">
        <ele>22.2</ele>
        <time>2019-08-26T07:51:09Z</time>
      </trkpt>
      <trkpt lat="59.37536459124" lon="18.004811792607">
        <ele>21.2</ele>
        <time>2019-08-26T07:51:13Z</time>
      </trkpt>
      <trkpt lat="59.374887158216" lon="18.005165005873">
        <ele>20</ele>
        <time>2019-08-26T07:51:18Z</time>
      </trkpt>
      <trkpt lat="59.374332276436" lon="18.005625758916">
        <ele>18.8</ele>
        <time>2019-08-26T07:51:24Z</time>
      </trkpt>
      <trkpt lat="59.373790135144" lon="18.006074358204">
        <ele>18</ele>
        <time>2019-08-26T07:51:30Z</time>
      </trkpt>
      <trkpt lat="59.373266685489" lon="18.00650803771">
        <ele>18.6</ele>
        <time>2019-08-26T07:51:36Z</time>
      </trkpt>
      <trkpt lat="59.372768130077" lon="18.006924953416">
        <ele>18.2</ele>
        <time>2019-08-26T07:51:42Z</time>
      </trkpt>
      <trkpt lat="59.372273597977" lon="18.007382940432">
        <ele>19.4</ele>
        <time>2019-08-26T07:51:49Z</time>
      </trkpt>
      <trkpt lat="59.372211571917" lon="18.007449492718">
        <ele>19.6</ele>
        <time>2019-08-26T07:51:50Z</time>
      </trkpt>
      <trkpt lat="59.372086262512" lon="18.007548147681">
        <ele>19.8</ele>
        <time>2019-08-26T07:51:52Z</time>
      </trkpt>
      <trkpt lat="59.371500702978" lon="18.007868336261">
        <ele>20.2</ele>
        <time>2019-08-26T07:52:00Z</time>
      </trkpt>
      <trkpt lat="59.371027377085" lon="18.007964225197">
        <ele>21</ele>
        <time>2019-08-26T07:52:06Z</time>
      </trkpt>
      <trkpt lat="59.370431507814" lon="18.008147872626">
        <ele>21.4</ele>
        <time>2019-08-26T07:52:14Z</time>
      </trkpt>
      <trkpt lat="59.369887606323" lon="18.008363958008">
        <ele>22</ele>
        <time>2019-08-26T07:52:22Z</time>
      </trkpt>
      <trkpt lat="59.369354685121" lon="18.008588173833">
        <ele>22.2</ele>
        <time>2019-08-26T07:52:30Z</time>
      </trkpt>
      <trkpt lat="59.368834085312" lon="18.009083711761">
        <ele>23</ele>
        <time>2019-08-26T07:52:39Z</time>
      </trkpt>
      <trkpt lat="59.3685366955" lon="18.009718640686">
        <ele>22.8</ele>
        <time>2019-08-26T07:52:50Z</time>
      </trkpt>
      <trkpt lat="59.368454888156" lon="18.009976132654">
        <ele>22.8</ele>
        <time>2019-08-26T07:52:54Z</time>
      </trkpt>
      <trkpt lat="59.368372829355" lon="18.010090294132">
        <ele>23</ele>
        <time>2019-08-26T07:52:56Z</time>
      </trkpt>
      <trkpt lat="59.368348773302" lon="18.010180651014">
        <ele>23</ele>
        <time>2019-08-26T07:52:57Z</time>
      </trkpt>
      <trkpt lat="59.368334356434" lon="18.010278551606">
        <ele>23</ele>
        <time>2019-08-26T07:52:58Z</time>
      </trkpt>
      <trkpt lat="59.368287669251" lon="18.010489272572">
        <ele>23</ele>
        <time>2019-08-26T07:53:00Z</time>
      </trkpt>
      <trkpt lat="59.367933953071" lon="18.011370461719">
        <ele>23.2</ele>
        <time>2019-08-26T07:53:09Z</time>
      </trkpt>
      <trkpt lat="59.367705881572" lon="18.011776983869">
        <ele>24.2</ele>
        <time>2019-08-26T07:53:14Z</time>
      </trkpt>
      <trkpt lat="59.367295419929" lon="18.012290123787">
        <ele>25</ele>
        <time>2019-08-26T07:53:23Z</time>
      </trkpt>
      <trkpt lat="59.367198692803" lon="18.012316275315">
        <ele>25.6</ele>
        <time>2019-08-26T07:53:25Z</time>
      </trkpt>
      <trkpt lat="59.36712518354" lon="18.012424904739">
        <ele>26.2</ele>
        <time>2019-08-26T07:53:27Z</time>
      </trkpt>
      <trkpt lat="59.367047064232" lon="18.012537306018">
        <ele>26.6</ele>
        <time>2019-08-26T07:53:29Z</time>
      </trkpt>
      <trkpt lat="59.367006412017" lon="18.012571420351">
        <ele>26.6</ele>
        <time>2019-08-26T07:53:30Z</time>
      </trkpt>
      <trkpt lat="59.366968525829" lon="18.01261676643">
        <ele>26.6</ele>
        <time>2019-08-26T07:53:31Z</time>
      </trkpt>
      <trkpt lat="59.366630148526" lon="18.013035442335">
        <ele>27.8</ele>
        <time>2019-08-26T07:53:39Z</time>
      </trkpt>
      <trkpt lat="59.366152966959" lon="18.013667940509">
        <ele>27.8</ele>
        <time>2019-08-26T07:53:48Z</time>
      </trkpt>
      <trkpt lat="59.365702691291" lon="18.014248806179">
        <ele>28.2</ele>
        <time>2019-08-26T07:53:56Z</time>
      </trkpt>
      <trkpt lat="59.365337408089" lon="18.01474241627">
        <ele>27.6</ele>
        <time>2019-08-26T07:54:07Z</time>
      </trkpt>
      <trkpt lat="59.365270604346" lon="18.014864456734">
        <ele>27.8</ele>
        <time>2019-08-26T07:54:09Z</time>
      </trkpt>
      <trkpt lat="59.365187791174" lon="18.0149326854">
        <ele>27.8</ele>
        <time>2019-08-26T07:54:11Z</time>
      </trkpt>
      <trkpt lat="59.365044963598" lon="18.014987419207">
        <ele>27.6</ele>
        <time>2019-08-26T07:54:14Z</time>
      </trkpt>
      <trkpt lat="59.364946140997" lon="18.014919441998">
        <ele>27</ele>
        <time>2019-08-26T07:54:16Z</time>
      </trkpt>
      <trkpt lat="59.364897190701" lon="18.014881723448">
        <ele>26.6</ele>
        <time>2019-08-26T07:54:17Z</time>
      </trkpt>
      <trkpt lat="59.364738437515" lon="18.014774770404">
        <ele>26.8</ele>
        <time>2019-08-26T07:54:20Z</time>
      </trkpt>
      <trkpt lat="59.364538026286" lon="18.014602857635">
        <ele>27.4</ele>
        <time>2019-08-26T07:54:24Z</time>
      </trkpt>
      <trkpt lat="59.364447585585" lon="18.014587183482">
        <ele>27.6</ele>
        <time>2019-08-26T07:54:26Z</time>
      </trkpt>
      <trkpt lat="59.364419673858" lon="18.014636469054">
        <ele>28</ele>
        <time>2019-08-26T07:54:27Z</time>
      </trkpt>
      <trkpt lat="59.364389834294" lon="18.014692041051">
        <ele>28.4</ele>
        <time>2019-08-26T07:54:28Z</time>
      </trkpt>
      <trkpt lat="59.364348176251" lon="18.014852470617">
        <ele>29</ele>
        <time>2019-08-26T07:54:30Z</time>
      </trkpt>
      <trkpt lat="59.364336273953" lon="18.014952382865">
        <ele>29.2</ele>
        <time>2019-08-26T07:54:31Z</time>
      </trkpt>
      <trkpt lat="59.364351277554" lon="18.015192859576">
        <ele>30</ele>
        <time>2019-08-26T07:54:34Z</time>
      </trkpt>
      <trkpt lat="59.36434658369" lon="18.015283803191">
        <ele>30.2</ele>
        <time>2019-08-26T07:54:35Z</time>
      </trkpt>
      <trkpt lat="59.364332669736" lon="18.015360581395">
        <ele>30.4</ele>
        <time>2019-08-26T07:54:36Z</time>
      </trkpt>
      <trkpt lat="59.364294951186" lon="18.015609523825">
        <ele>31.2</ele>
        <time>2019-08-26T07:54:40Z</time>
      </trkpt>
      <trkpt lat="59.364130833584" lon="18.016282255119">
        <ele>32.2</ele>
        <time>2019-08-26T07:54:47Z</time>
      </trkpt>
      <trkpt lat="59.364106777531" lon="18.016373282553">
        <ele>32.4</ele>
        <time>2019-08-26T07:54:48Z</time>
      </trkpt>
      <trkpt lat="59.363998986297" lon="18.016467662747">
        <ele>33.2</ele>
        <time>2019-08-26T07:54:51Z</time>
      </trkpt>
      <trkpt lat="59.363881555878" lon="18.016434386604">
        <ele>34.4</ele>
        <time>2019-08-26T07:54:57Z</time>
      </trkpt>
      <trkpt lat="59.363872335788" lon="18.016386609774">
        <ele>34.4</ele>
        <time>2019-08-26T07:54:58Z</time>
      </trkpt>
      <trkpt lat="59.363615346734" lon="18.016227605131">
        <ele>35</ele>
        <time>2019-08-26T07:55:03Z</time>
      </trkpt>
      <trkpt lat="59.363519876893" lon="18.016111851092">
        <ele>35.4</ele>
        <time>2019-08-26T07:55:06Z</time>
      </trkpt>
      <trkpt lat="59.363435722617" lon="18.016032809775">
        <ele>36.2</ele>
        <time>2019-08-26T07:55:09Z</time>
      </trkpt>
      <trkpt lat="59.363419797007" lon="18.015968939697">
        <ele>36.6</ele>
        <time>2019-08-26T07:55:10Z</time>
      </trkpt>
      <trkpt lat="59.363383251923" lon="18.01585972354">
        <ele>37.2</ele>
        <time>2019-08-26T07:55:12Z</time>
      </trkpt>
      <trkpt lat="59.36333237379" lon="18.015849078527">
        <ele>37.6</ele>
        <time>2019-08-26T07:55:14Z</time>
      </trkpt>
      <trkpt lat="59.362794004353" lon="18.016106235219">
        <ele>37.8</ele>
        <time>2019-08-26T07:55:26Z</time>
      </trkpt>
      <trkpt lat="59.362550510158" lon="18.016250906813">
        <ele>38.2</ele>
        <time>2019-08-26T07:55:31Z</time>
      </trkpt>
      <trkpt lat="59.362465098597" lon="18.016349394138">
        <ele>38.2</ele>
        <time>2019-08-26T07:55:33Z</time>
      </trkpt>
      <trkpt lat="59.362380441407" lon="18.016454084069">
        <ele>38.6</ele>
        <time>2019-08-26T07:55:35Z</time>
      </trkpt>
      <trkpt lat="59.362138288316" lon="18.016695231332">
        <ele>39.8</ele>
        <time>2019-08-26T07:55:41Z</time>
      </trkpt>
      <trkpt lat="59.362025970856" lon="18.01676077779">
        <ele>41</ele>
        <time>2019-08-26T07:55:44Z</time>
      </trkpt>
      <trkpt lat="59.361764287938" lon="18.016953142395">
        <ele>41.6</ele>
        <time>2019-08-26T07:55:50Z</time>
      </trkpt>
      <trkpt lat="59.361650797012" lon="18.017079206171">
        <ele>40.8</ele>
        <time>2019-08-26T07:55:52Z</time>
      </trkpt>
      <trkpt lat="59.361536467896" lon="18.017148273027">
        <ele>39.8</ele>
        <time>2019-08-26T07:55:54Z</time>
      </trkpt>
      <trkpt lat="59.361354915942" lon="18.017227565801">
        <ele>38.8</ele>
        <time>2019-08-26T07:55:57Z</time>
      </trkpt>
      <trkpt lat="59.361134388153" lon="18.017291100603">
        <ele>37.2</ele>
        <time>2019-08-26T07:56:00Z</time>
      </trkpt>
      <trkpt lat="59.360869436294" lon="18.017320521072">
        <ele>36.2</ele>
        <time>2019-08-26T07:56:03Z</time>
      </trkpt>
      <trkpt lat="59.36070297176" lon="18.017333010103">
        <ele>35</ele>
        <time>2019-08-26T07:56:05Z</time>
      </trkpt>
      <trkpt lat="59.360351267236" lon="18.017369890463">
        <ele>34</ele>
        <time>2019-08-26T07:56:09Z</time>
      </trkpt>
      <trkpt lat="59.359787416823" lon="18.017365699513">
        <ele>32.8</ele>
        <time>2019-08-26T07:56:15Z</time>
      </trkpt>
      <trkpt lat="59.359412578255" lon="18.017330914628">
        <ele>31.8</ele>
        <time>2019-08-26T07:56:19Z</time>
      </trkpt>
      <trkpt lat="59.359004715001" lon="18.017268469473">
        <ele>30.8</ele>
        <time>2019-08-26T07:56:24Z</time>
      </trkpt>
      <trkpt lat="59.358586709648" lon="18.017168641044">
        <ele>29.6</ele>
        <time>2019-08-26T07:56:29Z</time>
      </trkpt>
      <trkpt lat="59.358041802329" lon="18.017095131781">
        <ele>29.4</ele>
        <time>2019-08-26T07:56:35Z</time>
      </trkpt>
      <trkpt lat="59.357532266628" lon="18.016955573146">
        <ele>28.6</ele>
        <time>2019-08-26T07:56:41Z</time>
      </trkpt>
      <trkpt lat="59.356990125336" lon="18.016718952109">
        <ele>27.6</ele>
        <time>2019-08-26T07:56:48Z</time>
      </trkpt>
      <trkpt lat="59.356558792762" lon="18.016542094019">
        <ele>28</ele>
        <time>2019-08-26T07:56:54Z</time>
      </trkpt>
      <trkpt lat="59.356024278999" lon="18.016381245358">
        <ele>28</ele>
        <time>2019-08-26T07:57:02Z</time>
      </trkpt>
      <trkpt lat="59.355780114252" lon="18.016301701127">
        <ele>28</ele>
        <time>2019-08-26T07:57:06Z</time>
      </trkpt>
      <trkpt lat="59.35568808099" lon="18.01616817746">
        <ele>27.8</ele>
        <time>2019-08-26T07:57:08Z</time>
      </trkpt>
      <trkpt lat="59.355624546188" lon="18.015953433182">
        <ele>27.4</ele>
        <time>2019-08-26T07:57:10Z</time>
      </trkpt>
      <trkpt lat="59.355413489946" lon="18.015683200726">
        <ele>26.6</ele>
        <time>2019-08-26T07:57:14Z</time>
      </trkpt>
      <trkpt lat="59.35535615775" lon="18.015676662844">
        <ele>26.4</ele>
        <time>2019-08-26T07:57:15Z</time>
      </trkpt>
      <trkpt lat="59.355256077864" lon="18.015647912927">
        <ele>26.2</ele>
        <time>2019-08-26T07:57:16Z</time>
      </trkpt>
      <trkpt lat="59.355021887578" lon="18.01555881333">
        <ele>25.2</ele>
        <time>2019-08-26T07:57:21Z</time>
      </trkpt>
      <trkpt lat="59.354982408829" lon="18.015598124441">
        <ele>24.8</ele>
        <time>2019-08-26T07:57:47Z</time>
      </trkpt>
      <trkpt lat="59.354918957846" lon="18.015508605749">
        <ele>24.6</ele>
        <time>2019-08-26T07:57:50Z</time>
      </trkpt>
      <trkpt lat="59.354865648962" lon="18.015429312975">
        <ele>24.2</ele>
        <time>2019-08-26T07:57:52Z</time>
      </trkpt>
      <trkpt lat="59.354680911886" lon="18.015235774904">
        <ele>24.2</ele>
        <time>2019-08-26T07:57:58Z</time>
      </trkpt>
      <trkpt lat="59.354672110891" lon="18.015136533208">
        <ele>24</ele>
        <time>2019-08-26T07:58:00Z</time>
      </trkpt>
      <trkpt lat="59.355052816789" lon="18.014238328804">
        <ele>23</ele>
        <time>2019-08-26T07:58:10Z</time>
      </trkpt>
      <trkpt lat="59.355121967464" lon="18.014018639205">
        <ele>22.8</ele>
        <time>2019-08-26T07:58:12Z</time>
      </trkpt>
      <trkpt lat="59.355247947421" lon="18.013057570551">
        <ele>22</ele>
        <time>2019-08-26T07:58:20Z</time>
      </trkpt>
      <trkpt lat="59.355321708141" lon="18.012964363823">
        <ele>22</ele>
        <time>2019-08-26T07:58:21Z</time>
      </trkpt>
      <trkpt lat="59.355417848534" lon="18.012550884696">
        <ele>22.2</ele>
        <time>2019-08-26T07:58:24Z</time>
      </trkpt>
      <trkpt lat="59.355542068292" lon="18.012097591544">
        <ele>22.4</ele>
        <time>2019-08-26T07:58:27Z</time>
      </trkpt>
      <trkpt lat="59.355694702691" lon="18.01145838785">
        <ele>23.6</ele>
        <time>2019-08-26T07:58:35Z</time>
      </trkpt>
      <trkpt lat="59.355596215366" lon="18.011632060818">
        <ele>24.2</ele>
        <time>2019-08-26T07:58:40Z</time>
      </trkpt>
      <trkpt lat="59.355470319228" lon="18.011976473089">
        <ele>25.4</ele>
        <time>2019-08-26T07:58:45Z</time>
      </trkpt>
      <trkpt lat="59.35545087322" lon="18.012055933501">
        <ele>25.4</ele>
        <time>2019-08-26T07:58:46Z</time>
      </trkpt>
      <trkpt lat="59.355381722545" lon="18.012311078537">
        <ele>25.4</ele>
        <time>2019-08-26T07:58:49Z</time>
      </trkpt>
      <trkpt lat="59.355296227165" lon="18.012410655509">
        <ele>25.6</ele>
        <time>2019-08-26T07:58:51Z</time>
      </trkpt>
      <trkpt lat="59.355125236405" lon="18.01247343594">
        <ele>25.8</ele>
        <time>2019-08-26T07:58:54Z</time>
      </trkpt>
      <trkpt lat="59.354688623234" lon="18.012827906491">
        <ele>26.4</ele>
        <time>2019-08-26T07:59:02Z</time>
      </trkpt>
      <trkpt lat="59.354631877771" lon="18.012847520137">
        <ele>26.6</ele>
        <time>2019-08-26T07:59:03Z</time>
      </trkpt>
      <trkpt lat="59.354426521221" lon="18.012829918147">
        <ele>27.8</ele>
        <time>2019-08-26T07:59:08Z</time>
      </trkpt>
      <trkpt lat="59.354388299757" lon="18.012728497157">
        <ele>28.8</ele>
        <time>2019-08-26T07:59:10Z</time>
      </trkpt>
      <trkpt lat="59.354352592863" lon="18.012692454987">
        <ele>28.8</ele>
        <time>2019-08-26T07:59:11Z</time>
      </trkpt>
      <trkpt lat="59.354305821861" lon="18.012667393106">
        <ele>29</ele>
        <time>2019-08-26T07:59:12Z</time>
      </trkpt>
      <trkpt lat="59.354077247448" lon="18.012650796944">
        <ele>29</ele>
        <time>2019-08-26T07:59:16Z</time>
      </trkpt>
      <trkpt lat="59.353986052376" lon="18.012597655698">
        <ele>29.4</ele>
        <time>2019-08-26T07:59:18Z</time>
      </trkpt>
      <trkpt lat="59.3538851343" lon="18.012481063469">
        <ele>29.8</ele>
        <time>2019-08-26T07:59:20Z</time>
      </trkpt>
      <trkpt lat="59.353845571732" lon="18.012409482043">
        <ele>30</ele>
        <time>2019-08-26T07:59:21Z</time>
      </trkpt>
      <trkpt lat="59.353741636172" lon="18.012192726109">
        <ele>31.2</ele>
        <time>2019-08-26T07:59:24Z</time>
      </trkpt>
      <trkpt lat="59.353715065549" lon="18.012056436415">
        <ele>32.2</ele>
        <time>2019-08-26T07:59:26Z</time>
      </trkpt>
      <trkpt lat="59.353733757186" lon="18.012002708436">
        <ele>32.4</ele>
        <time>2019-08-26T07:59:27Z</time>
      </trkpt>
      <trkpt lat="59.353821264222" lon="18.011643879297">
        <ele>33</ele>
        <time>2019-08-26T07:59:33Z</time>
      </trkpt>
      <trkpt lat="59.35376359675" lon="18.011512367286">
        <ele>33.4</ele>
        <time>2019-08-26T07:59:35Z</time>
      </trkpt>
      <trkpt lat="59.353622194097" lon="18.01122537103">
        <ele>34.6</ele>
        <time>2019-08-26T07:59:40Z</time>
      </trkpt>
      <trkpt lat="59.353499315443" lon="18.010984978138">
        <ele>35.6</ele>
        <time>2019-08-26T07:59:45Z</time>
      </trkpt>
      <trkpt lat="59.353399403195" lon="18.011340705974">
        <ele>35.8</ele>
        <time>2019-08-26T07:59:51Z</time>
      </trkpt>
      <trkpt lat="59.353316422385" lon="18.011427710096">
        <ele>35.6</ele>
        <time>2019-08-26T07:59:53Z</time>
      </trkpt>
      <trkpt lat="59.353211145721" lon="18.011425530802">
        <ele>35.6</ele>
        <time>2019-08-26T07:59:55Z</time>
      </trkpt>
      <trkpt lat="59.352603122695" lon="18.011257641345">
        <ele>35.2</ele>
        <time>2019-08-26T08:00:05Z</time>
      </trkpt>
      <trkpt lat="59.352477142738" lon="18.011218246415">
        <ele>35.2</ele>
        <time>2019-08-26T08:00:07Z</time>
      </trkpt>
      <trkpt lat="59.351896528525" lon="18.011109365534">
        <ele>35</ele>
        <time>2019-08-26T08:00:17Z</time>
      </trkpt>
      <trkpt lat="59.351683879722" lon="18.011099391073">
        <ele>35.4</ele>
        <time>2019-08-26T08:00:21Z</time>
      </trkpt>
      <trkpt lat="59.35156418619" lon="18.011078268685">
        <ele>35.2</ele>
        <time>2019-08-26T08:00:23Z</time>
      </trkpt>
      <trkpt lat="59.351435440206" lon="18.011101989462">
        <ele>35</ele>
        <time>2019-08-26T08:00:25Z</time>
      </trkpt>
      <trkpt lat="59.351090273564" lon="18.011318996853">
        <ele>35.8</ele>
        <time>2019-08-26T08:00:30Z</time>
      </trkpt>
      <trkpt lat="59.3506245752" lon="18.011908831156">
        <ele>34.6</ele>
        <time>2019-08-26T08:00:37Z</time>
      </trkpt>
      <trkpt lat="59.350545198607" lon="18.011974042338">
        <ele>33.8</ele>
        <time>2019-08-26T08:00:38Z</time>
      </trkpt>
      <trkpt lat="59.350460625236" lon="18.012024920471">
        <ele>33.2</ele>
        <time>2019-08-26T08:00:39Z</time>
      </trkpt>
      <trkpt lat="59.350185531278" lon="18.012101782494">
        <ele>32</ele>
        <time>2019-08-26T08:00:42Z</time>
      </trkpt>
      <trkpt lat="59.349991406474" lon="18.012062219926">
        <ele>31</ele>
        <time>2019-08-26T08:00:44Z</time>
      </trkpt>
      <trkpt lat="59.349897780651" lon="18.012004217178">
        <ele>30.2</ele>
        <time>2019-08-26T08:00:45Z</time>
      </trkpt>
      <trkpt lat="59.349806334122" lon="18.011919308531">
        <ele>29.2</ele>
        <time>2019-08-26T08:00:46Z</time>
      </trkpt>
      <trkpt lat="59.349720503466" lon="18.011811182021">
        <ele>28.4</ele>
        <time>2019-08-26T08:00:47Z</time>
      </trkpt>
      <trkpt lat="59.349643725262" lon="18.011686543168">
        <ele>27.6</ele>
        <time>2019-08-26T08:00:48Z</time>
      </trkpt>
      <trkpt lat="59.349565773592" lon="18.011564167428">
        <ele>27.2</ele>
        <time>2019-08-26T08:00:49Z</time>
      </trkpt>
      <trkpt lat="59.349367541657" lon="18.011181114598">
        <ele>26.6</ele>
        <time>2019-08-26T08:00:52Z</time>
      </trkpt>
      <trkpt lat="59.349146510954" lon="18.010868721185">
        <ele>26.8</ele>
        <time>2019-08-26T08:00:55Z</time>
      </trkpt>
      <trkpt lat="59.348832776437" lon="18.00989767807">
        <ele>26.6</ele>
        <time>2019-08-26T08:01:02Z</time>
      </trkpt>
      <trkpt lat="59.348758512803" lon="18.009627361795">
        <ele>26.6</ele>
        <time>2019-08-26T08:01:04Z</time>
      </trkpt>
      <trkpt lat="59.348748035428" lon="18.009365511239">
        <ele>26.4</ele>
        <time>2019-08-26T08:01:06Z</time>
      </trkpt>
      <trkpt lat="59.348789358195" lon="18.008978267459">
        <ele>26.8</ele>
        <time>2019-08-26T08:01:09Z</time>
      </trkpt>
      <trkpt lat="59.348670838129" lon="18.008509383973">
        <ele>27</ele>
        <time>2019-08-26T08:01:13Z</time>
      </trkpt>
      <trkpt lat="59.348582241446" lon="18.00835540847">
        <ele>26</ele>
        <time>2019-08-26T08:01:17Z</time>
      </trkpt>
      <trkpt lat="59.348550725502" lon="18.00835540847">
        <ele>25.8</ele>
        <time>2019-08-26T08:01:18Z</time>
      </trkpt>
      <trkpt lat="59.348471013633" lon="18.008479292952">
        <ele>25.8</ele>
        <time>2019-08-26T08:01:20Z</time>
      </trkpt>
      <trkpt lat="59.34838325514" lon="18.008679368905">
        <ele>25.8</ele>
        <time>2019-08-26T08:01:22Z</time>
      </trkpt>
      <trkpt lat="59.348148813397" lon="18.009016824199">
        <ele>25.4</ele>
        <time>2019-08-26T08:01:26Z</time>
      </trkpt>
      <trkpt lat="59.34792979435" lon="18.009170212969">
        <ele>24.8</ele>
        <time>2019-08-26T08:01:29Z</time>
      </trkpt>
      <trkpt lat="59.347593344884" lon="18.009203405293">
        <ele>23.8</ele>
        <time>2019-08-26T08:01:33Z</time>
      </trkpt>
      <trkpt lat="59.347506927495" lon="18.009179768335">
        <ele>23.8</ele>
        <time>2019-08-26T08:01:34Z</time>
      </trkpt>
      <trkpt lat="59.34708238426" lon="18.008890089871">
        <ele>22.6</ele>
        <time>2019-08-26T08:01:39Z</time>
      </trkpt>
      <trkpt lat="59.346735541238" lon="18.008651708635">
        <ele>21.4</ele>
        <time>2019-08-26T08:01:43Z</time>
      </trkpt>
      <trkpt lat="59.346165655857" lon="18.008208222306">
        <ele>20.2</ele>
        <time>2019-08-26T08:01:50Z</time>
      </trkpt>
      <trkpt lat="59.345858459222" lon="18.007975121667">
        <ele>19.2</ele>
        <time>2019-08-26T08:01:54Z</time>
      </trkpt>
      <trkpt lat="59.345357473059" lon="18.007563486558">
        <ele>18.8</ele>
        <time>2019-08-26T08:02:01Z</time>
      </trkpt>
      <trkpt lat="59.344968133804" lon="18.007316388146">
        <ele>20.2</ele>
        <time>2019-08-26T08:02:07Z</time>
      </trkpt>
      <trkpt lat="59.344871825773" lon="18.007298199423">
        <ele>20.4</ele>
        <time>2019-08-26T08:02:09Z</time>
      </trkpt>
      <trkpt lat="59.344735703717" lon="18.007271125886">
        <ele>20</ele>
        <time>2019-08-26T08:02:12Z</time>
      </trkpt>
      <trkpt lat="59.344649202509" lon="18.007288476419">
        <ele>19.8</ele>
        <time>2019-08-26T08:02:14Z</time>
      </trkpt>
      <trkpt lat="59.344422891209" lon="18.007384868269">
        <ele>19</ele>
        <time>2019-08-26T08:02:20Z</time>
      </trkpt>
      <trkpt lat="59.344189874389" lon="18.007462149387">
        <ele>18.6</ele>
        <time>2019-08-26T08:02:24Z</time>
      </trkpt>
      <trkpt lat="59.343735910685" lon="18.007975959857">
        <ele>18.2</ele>
        <time>2019-08-26T08:02:32Z</time>
      </trkpt>
      <trkpt lat="59.343447489506" lon="18.008659755259">
        <ele>18</ele>
        <time>2019-08-26T08:02:40Z</time>
      </trkpt>
      <trkpt lat="59.343347074344" lon="18.009132578238">
        <ele>19</ele>
        <time>2019-08-26T08:02:48Z</time>
      </trkpt>
      <trkpt lat="59.343193266479" lon="18.009281692239">
        <ele>20.2</ele>
        <time>2019-08-26T08:02:52Z</time>
      </trkpt>
      <trkpt lat="59.342747684675" lon="18.009298036944">
        <ele>20.2</ele>
        <time>2019-08-26T08:03:00Z</time>
      </trkpt>
      <trkpt lat="59.342494802752" lon="18.009482941658">
        <ele>21.4</ele>
        <time>2019-08-26T08:03:05Z</time>
      </trkpt>
      <trkpt lat="59.342442751153" lon="18.009537591646">
        <ele>21.6</ele>
        <time>2019-08-26T08:03:06Z</time>
      </trkpt>
      <trkpt lat="59.342343677095" lon="18.009631468926">
        <ele>21.8</ele>
        <time>2019-08-26T08:03:08Z</time>
      </trkpt>
      <trkpt lat="59.342279890836" lon="18.009739763074">
        <ele>21.8</ele>
        <time>2019-08-26T08:03:10Z</time>
      </trkpt>
      <trkpt lat="59.342233622748" lon="18.009888290342">
        <ele>21.8</ele>
        <time>2019-08-26T08:03:12Z</time>
      </trkpt>
      <trkpt lat="59.342167154281" lon="18.010007732417">
        <ele>21.8</ele>
        <time>2019-08-26T08:03:14Z</time>
      </trkpt>
      <trkpt lat="59.341786951297" lon="18.010438562077">
        <ele>21.2</ele>
        <time>2019-08-26T08:03:21Z</time>
      </trkpt>
      <trkpt lat="59.341441030284" lon="18.010969220166">
        <ele>21.6</ele>
        <time>2019-08-26T08:03:28Z</time>
      </trkpt>
      <trkpt lat="59.341340531303" lon="18.011282116493">
        <ele>21.8</ele>
        <time>2019-08-26T08:03:30Z</time>
      </trkpt>
      <trkpt lat="59.34116057191" lon="18.012334044943">
        <ele>22</ele>
        <time>2019-08-26T08:03:40Z</time>
      </trkpt>
      <trkpt lat="59.341075327987" lon="18.012724390026">
        <ele>22.2</ele>
        <time>2019-08-26T08:03:45Z</time>
      </trkpt>
      <trkpt lat="59.340986898942" lon="18.0127953009">
        <ele>22.2</ele>
        <time>2019-08-26T08:03:47Z</time>
      </trkpt>
      <trkpt lat="59.340884891219" lon="18.012794797986">
        <ele>22.4</ele>
        <time>2019-08-26T08:03:49Z</time>
      </trkpt>
      <trkpt lat="59.340569815598" lon="18.012762443852">
        <ele>23.6</ele>
        <time>2019-08-26T08:03:55Z</time>
      </trkpt>
      <trkpt lat="59.340353730216" lon="18.012798569841">
        <ele>22.4</ele>
        <time>2019-08-26T08:04:01Z</time>
      </trkpt>
      <trkpt lat="59.340293380536" lon="18.012912479862">
        <ele>21.6</ele>
        <time>2019-08-26T08:04:03Z</time>
      </trkpt>
      <trkpt lat="59.340265133533" lon="18.013112471996">
        <ele>21.2</ele>
        <time>2019-08-26T08:04:05Z</time>
      </trkpt>
      <trkpt lat="59.340174441375" lon="18.013814791397">
        <ele>20.4</ele>
        <time>2019-08-26T08:04:10Z</time>
      </trkpt>
      <trkpt lat="59.340097076438" lon="18.014103044938">
        <ele>20</ele>
        <time>2019-08-26T08:04:12Z</time>
      </trkpt>
      <trkpt lat="59.339705138794" lon="18.014990101415">
        <ele>19.4</ele>
        <time>2019-08-26T08:04:19Z</time>
      </trkpt>
      <trkpt lat="59.339475642372" lon="18.015341638301">
        <ele>21.4</ele>
        <time>2019-08-26T08:04:23Z</time>
      </trkpt>
      <trkpt lat="59.339416969072" lon="18.015379943584">
        <ele>22</ele>
        <time>2019-08-26T08:04:24Z</time>
      </trkpt>
      <trkpt lat="59.339360391247" lon="18.015359910843">
        <ele>22.6</ele>
        <time>2019-08-26T08:04:25Z</time>
      </trkpt>
      <trkpt lat="59.339315296625" lon="18.015304925579">
        <ele>23.2</ele>
        <time>2019-08-26T08:04:26Z</time>
      </trkpt>
      <trkpt lat="59.339275566419" lon="18.01524700665">
        <ele>23.8</ele>
        <time>2019-08-26T08:04:27Z</time>
      </trkpt>
      <trkpt lat="59.339250755995" lon="18.015176263414">
        <ele>24.6</ele>
        <time>2019-08-26T08:04:28Z</time>
      </trkpt>
      <trkpt lat="59.339225694114" lon="18.015102335056">
        <ele>25.2</ele>
        <time>2019-08-26T08:04:29Z</time>
      </trkpt>
      <trkpt lat="59.339193423799" lon="18.014942408404">
        <ele>26.4</ele>
        <time>2019-08-26T08:04:31Z</time>
      </trkpt>
      <trkpt lat="59.339172888144" lon="18.014774686585">
        <ele>27.6</ele>
        <time>2019-08-26T08:04:33Z</time>
      </trkpt>
      <trkpt lat="59.339136007784" lon="18.01463009881">
        <ele>29</ele>
        <time>2019-08-26T08:04:35Z</time>
      </trkpt>
      <trkpt lat="59.339069790774" lon="18.014457180213">
        <ele>30.2</ele>
        <time>2019-08-26T08:04:38Z</time>
      </trkpt>
      <trkpt lat="59.338906176086" lon="18.014094160124">
        <ele>30.4</ele>
        <time>2019-08-26T08:04:46Z</time>
      </trkpt>
      <trkpt lat="59.338692186179" lon="18.013617062376">
        <ele>31.2</ele>
        <time>2019-08-26T08:04:53Z</time>
      </trkpt>
      <trkpt lat="59.338649103213" lon="18.013476330275">
        <ele>31.6</ele>
        <time>2019-08-26T08:04:55Z</time>
      </trkpt>
      <trkpt lat="59.338570229534" lon="18.01321774866">
        <ele>32.4</ele>
        <time>2019-08-26T08:04:59Z</time>
      </trkpt>
      <trkpt lat="59.338534355002" lon="18.013022115114">
        <ele>33.6</ele>
        <time>2019-08-26T08:05:02Z</time>
      </trkpt>
      <trkpt lat="59.33852781712" lon="18.012789852665">
        <ele>34.6</ele>
        <time>2019-08-26T08:05:05Z</time>
      </trkpt>
      <trkpt lat="59.338470652562" lon="18.012700669249">
        <ele>35</ele>
        <time>2019-08-26T08:05:07Z</time>
      </trkpt>
      <trkpt lat="59.338132945811" lon="18.012688180218">
        <ele>35.4</ele>
        <time>2019-08-26T08:05:15Z</time>
      </trkpt>
      <trkpt lat="59.33789330729" lon="18.012743416939">
        <ele>35.6</ele>
        <time>2019-08-26T08:05:20Z</time>
      </trkpt>
      <trkpt lat="59.337535148703" lon="18.012744003672">
        <ele>36.2</ele>
        <time>2019-08-26T08:05:27Z</time>
      </trkpt>
      <trkpt lat="59.337201632902" lon="18.012900242288">
        <ele>36.8</ele>
        <time>2019-08-26T08:05:33Z</time>
      </trkpt>
      <trkpt lat="59.33710289412" lon="18.01296042433">
        <ele>37</ele>
        <time>2019-08-26T08:05:35Z</time>
      </trkpt>
      <trkpt lat="59.336919246691" lon="18.013153375668">
        <ele>37.4</ele>
        <time>2019-08-26T08:05:39Z</time>
      </trkpt>
      <trkpt lat="59.336735012529" lon="18.013396366949">
        <ele>37.4</ele>
        <time>2019-08-26T08:05:43Z</time>
      </trkpt>
      <trkpt lat="59.336500067872" lon="18.013970359461">
        <ele>35.2</ele>
        <time>2019-08-26T08:05:49Z</time>
      </trkpt>
      <trkpt lat="59.336403676022" lon="18.014177224753">
        <ele>34.2</ele>
        <time>2019-08-26T08:05:51Z</time>
      </trkpt>
      <trkpt lat="59.336242659723" lon="18.01458735112">
        <ele>33.4</ele>
        <time>2019-08-26T08:05:56Z</time>
      </trkpt>
      <trkpt lat="59.336125313123" lon="18.014756581681">
        <ele>33.2</ele>
        <time>2019-08-26T08:05:59Z</time>
      </trkpt>
      <trkpt lat="59.336035207698" lon="18.014694471802">
        <ele>32.8</ele>
        <time>2019-08-26T08:06:01Z</time>
      </trkpt>
      <trkpt lat="59.335951137241" lon="18.014519122454">
        <ele>32.6</ele>
        <time>2019-08-26T08:06:03Z</time>
      </trkpt>
      <trkpt lat="59.33580789057" lon="18.014203879195">
        <ele>31.8</ele>
        <time>2019-08-26T08:06:06Z</time>
      </trkpt>
      <trkpt lat="59.335629020824" lon="18.014023165431">
        <ele>30.4</ele>
        <time>2019-08-26T08:06:09Z</time>
      </trkpt>
      <trkpt lat="59.335550398602" lon="18.013882517149">
        <ele>29.2</ele>
        <time>2019-08-26T08:06:11Z</time>
      </trkpt>
      <trkpt lat="59.33545417439" lon="18.013779503598">
        <ele>28</ele>
        <time>2019-08-26T08:06:13Z</time>
      </trkpt>
      <trkpt lat="59.335415366193" lon="18.01372820637">
        <ele>27.4</ele>
        <time>2019-08-26T08:06:14Z</time>
      </trkpt>
      <trkpt lat="59.33538209005" lon="18.013673556382">
        <ele>26.8</ele>
        <time>2019-08-26T08:06:15Z</time>
      </trkpt>
      <trkpt lat="59.335304725113" lon="18.013595520893">
        <ele>25.8</ele>
        <time>2019-08-26T08:06:18Z</time>
      </trkpt>
      <trkpt lat="59.335309670434" lon="18.013565848967">
        <ele>25.4</ele>
        <time>2019-08-26T08:06:20Z</time>
      </trkpt>
    </trkseg>
  </trk>
</gpx>